createdAt,value
2023-07-18T00:00:54.951Z,0
2023-07-18T00:01:55.239Z,0
2023-07-18T00:02:55.560Z,0
2023-07-18T00:03:55.871Z,0
2023-07-18T00:04:56.072Z,0
2023-07-18T00:05:56.255Z,0
2023-07-18T00:06:56.406Z,0.12
2023-07-18T00:07:56.587Z,0
2023-07-18T00:08:56.751Z,0
2023-07-18T00:09:59.493Z,0
2023-07-18T00:10:59.683Z,0
2023-07-18T00:11:59.849Z,0
2023-07-18T00:13:00.030Z,0
2023-07-18T00:14:00.216Z,0
2023-07-18T00:15:00.421Z,0
2023-07-18T00:16:00.656Z,0
2023-07-18T00:17:00.839Z,0
2023-07-18T00:18:01.110Z,0
2023-07-18T00:19:01.329Z,0
2023-07-18T00:20:01.523Z,0
2023-07-18T00:21:01.948Z,0
2023-07-18T00:22:02.234Z,0
2023-07-18T00:23:02.602Z,0
2023-07-18T00:24:02.820Z,0
2023-07-18T00:25:03.111Z,0
2023-07-18T00:26:03.314Z,0
2023-07-18T00:27:03.465Z,0
2023-07-18T00:28:03.641Z,0
2023-07-18T00:29:03.839Z,0
2023-07-18T00:30:04.029Z,0
2023-07-18T00:31:04.222Z,0
2023-07-18T00:32:04.513Z,0
2023-07-18T00:33:04.979Z,0
2023-07-18T00:34:05.223Z,0
2023-07-18T00:35:05.609Z,0
2023-07-18T00:36:05.769Z,0
2023-07-18T00:37:06.011Z,0
2023-07-18T00:38:06.232Z,0
2023-07-18T00:39:06.505Z,0
2023-07-18T00:40:06.702Z,0
2023-07-18T00:41:06.894Z,0
2023-07-18T00:42:07.106Z,0
2023-07-18T00:43:07.266Z,0
2023-07-18T00:44:07.422Z,0
2023-07-18T00:45:07.622Z,0
2023-07-18T00:46:07.931Z,0
2023-07-18T00:47:08.110Z,0
2023-07-18T00:48:08.441Z,0
2023-07-18T00:49:08.705Z,0
2023-07-18T00:50:08.909Z,0
2023-07-18T00:51:09.066Z,0
2023-07-18T00:52:09.228Z,0
2023-07-18T00:53:09.412Z,0
2023-07-18T00:54:10.843Z,0
2023-07-18T00:55:11.087Z,0
2023-07-18T00:56:11.320Z,0
2023-07-18T00:57:11.490Z,0
2023-07-18T00:58:11.669Z,0
2023-07-18T00:59:11.905Z,0
2023-07-18T01:00:12.091Z,0
2023-07-18T01:01:12.392Z,0
2023-07-18T01:02:12.713Z,0.25
2023-07-18T01:03:13.172Z,0.54
2023-07-18T01:04:13.358Z,0
2023-07-18T01:05:13.569Z,0
2023-07-18T01:06:13.745Z,0
2023-07-18T01:07:14.109Z,0
2023-07-18T01:08:14.353Z,0
2023-07-18T01:09:14.517Z,0
2023-07-18T01:10:14.700Z,0
2023-07-18T01:11:14.863Z,0
2023-07-18T01:12:15.036Z,0
2023-07-18T01:13:15.245Z,0
2023-07-18T01:14:15.472Z,0
2023-07-18T01:15:15.634Z,0
2023-07-18T01:16:15.957Z,0
2023-07-18T01:17:16.125Z,0
2023-07-18T01:18:16.284Z,0
2023-07-18T01:19:16.458Z,0
2023-07-18T01:20:16.626Z,0
2023-07-18T01:21:17.456Z,0
2023-07-18T01:22:17.772Z,0
2023-07-18T01:23:18.205Z,0
2023-07-18T01:24:18.425Z,0
2023-07-18T01:25:18.608Z,0
2023-07-18T01:26:18.779Z,0
2023-07-18T01:27:18.956Z,0
2023-07-18T01:28:19.108Z,0
2023-07-18T01:29:19.284Z,0
2023-07-18T01:30:19.457Z,0
2023-07-18T01:31:20.832Z,0
2023-07-18T01:32:21.301Z,0
2023-07-18T01:33:21.469Z,0
2023-07-18T01:34:21.640Z,0
2023-07-18T01:35:21.795Z,0
2023-07-18T01:36:21.954Z,0
2023-07-18T01:37:22.136Z,0
2023-07-18T01:38:22.300Z,0
2023-07-18T01:39:22.493Z,0
2023-07-18T01:40:22.661Z,0
2023-07-18T01:41:22.849Z,0
2023-07-18T01:42:23.056Z,0
2023-07-18T01:43:23.256Z,0
2023-07-18T01:44:23.432Z,0
2023-07-18T01:45:23.741Z,0
2023-07-18T01:46:23.966Z,0
2023-07-18T01:47:24.421Z,0
2023-07-18T01:48:24.656Z,0
2023-07-18T01:49:25.040Z,0
2023-07-18T01:50:25.345Z,0
2023-07-18T01:51:25.517Z,0
2023-07-18T01:52:25.695Z,0
2023-07-18T01:53:25.873Z,0
2023-07-18T01:54:26.031Z,0
2023-07-18T01:55:26.266Z,0
2023-07-18T01:56:26.467Z,0
2023-07-18T01:57:26.658Z,0
2023-07-18T01:58:26.849Z,0
2023-07-18T01:59:27.017Z,0.37
2023-07-18T02:00:27.209Z,0.22
2023-07-18T02:01:27.566Z,0
2023-07-18T02:02:28.097Z,0
2023-07-18T02:03:28.466Z,0.7
2023-07-18T02:04:28.686Z,0
2023-07-18T02:05:28.852Z,0
2023-07-18T02:06:29.027Z,0
2023-07-18T02:07:29.187Z,0
2023-07-18T02:08:29.336Z,0
2023-07-18T02:09:29.510Z,0
2023-07-18T02:10:29.692Z,0.54
2023-07-18T02:11:29.875Z,0.43
2023-07-18T02:12:30.077Z,0
2023-07-18T02:13:30.230Z,0
2023-07-18T02:14:30.426Z,0
2023-07-18T02:15:30.580Z,0
2023-07-18T02:16:30.887Z,0
2023-07-18T02:17:31.182Z,0.58
2023-07-18T02:18:31.372Z,0
2023-07-18T02:19:31.566Z,0
2023-07-18T02:20:31.773Z,0.24
2023-07-18T02:21:32.008Z,0
2023-07-18T02:22:32.301Z,0
2023-07-18T02:23:32.468Z,0
2023-07-18T02:24:32.621Z,0
2023-07-18T02:25:32.825Z,0
2023-07-18T02:26:33.022Z,0
2023-07-18T02:27:33.209Z,0
2023-07-18T02:28:33.402Z,0
2023-07-18T02:29:33.708Z,0
2023-07-18T02:30:33.939Z,0
2023-07-18T02:31:34.365Z,0
2023-07-18T02:32:34.598Z,0
2023-07-18T02:33:34.777Z,0
2023-07-18T02:34:34.977Z,0
2023-07-18T02:35:35.165Z,0
2023-07-18T02:36:35.355Z,0
2023-07-18T02:37:35.555Z,0.35
2023-07-18T02:38:35.731Z,0.22
2023-07-18T02:39:35.992Z,0
2023-07-18T02:40:36.219Z,0.79
2023-07-18T02:41:36.394Z,0
2023-07-18T02:42:36.765Z,0
2023-07-18T02:43:36.945Z,0.91
2023-07-18T02:44:37.097Z,0.33
2023-07-18T02:45:37.320Z,0.29
2023-07-18T02:46:37.683Z,0
2023-07-18T02:47:37.939Z,0.2
2023-07-18T02:48:38.143Z,0.32
2023-07-18T02:49:38.356Z,0
2023-07-18T02:50:38.520Z,0
2023-07-18T02:51:38.692Z,0.35
2023-07-18T02:52:38.856Z,0
2023-07-18T02:53:39.032Z,0
2023-07-18T02:54:39.246Z,0
2023-07-18T02:55:39.419Z,0
2023-07-18T02:56:39.599Z,0
2023-07-18T02:57:40.008Z,0.58
2023-07-18T02:58:40.304Z,0
2023-07-18T02:59:40.508Z,0.41
2023-07-18T03:00:40.672Z,0
2023-07-18T03:01:40.914Z,0
2023-07-18T03:02:41.407Z,0
2023-07-18T03:03:41.750Z,0
2023-07-18T03:04:41.946Z,0
2023-07-18T03:05:42.102Z,0.2
2023-07-18T03:06:42.275Z,0
2023-07-18T03:07:42.453Z,0
2023-07-18T03:08:42.628Z,0
2023-07-18T03:09:42.798Z,0
2023-07-18T03:10:43.415Z,0
2023-07-18T03:11:44.182Z,0
2023-07-18T03:12:44.799Z,0
2023-07-18T03:13:44.984Z,0
2023-07-18T03:14:45.172Z,0
2023-07-18T03:15:45.711Z,0
2023-07-18T03:16:46.170Z,0
2023-07-18T03:17:46.618Z,0
2023-07-18T03:18:46.803Z,0
2023-07-18T03:19:46.980Z,0
2023-07-18T03:20:47.155Z,0
2023-07-18T03:21:47.312Z,0
2023-07-18T03:22:47.723Z,0.12
2023-07-18T03:23:47.931Z,0
2023-07-18T03:24:48.130Z,0
2023-07-18T03:25:48.344Z,0
2023-07-18T03:26:48.499Z,0
2023-07-18T03:27:48.674Z,0
2023-07-18T03:28:48.901Z,0
2023-07-18T03:29:49.049Z,0
2023-07-18T03:30:49.227Z,0
2023-07-18T03:31:49.557Z,0
2023-07-18T03:32:50.235Z,0.2
2023-07-18T03:33:50.422Z,0
2023-07-18T03:34:50.594Z,0
2023-07-18T03:35:50.913Z,0
2023-07-18T03:36:51.089Z,0
2023-07-18T03:37:51.293Z,0
2023-07-18T03:38:51.459Z,0
2023-07-18T03:39:51.651Z,0
2023-07-18T03:40:51.819Z,0
2023-07-18T03:41:51.995Z,0
2023-07-18T03:42:52.177Z,0
2023-07-18T03:43:52.345Z,0
2023-07-18T03:44:52.529Z,0
2023-07-18T03:45:52.821Z,0
2023-07-18T03:47:21.649Z,0
2023-07-18T03:48:22.249Z,0
2023-07-18T03:49:22.441Z,0
2023-07-18T03:50:22.609Z,0
2023-07-18T03:51:34.838Z,0
2023-07-18T03:52:38.128Z,0
2023-07-18T03:53:38.312Z,0
2023-07-18T03:54:39.271Z,0
2023-07-18T03:55:39.731Z,0
2023-07-18T03:56:39.894Z,0
2023-07-18T03:57:40.066Z,0
2023-07-18T03:58:40.255Z,0
2023-07-18T03:59:40.427Z,0
2023-07-18T04:00:40.595Z,0
2023-07-18T04:01:40.884Z,0
2023-07-18T04:02:46.952Z,0
2023-07-18T04:03:47.524Z,0
2023-07-18T04:04:47.773Z,0
2023-07-18T04:05:47.943Z,0
2023-07-18T04:06:48.110Z,0
2023-07-18T04:07:48.355Z,0
2023-07-18T04:08:48.549Z,0
2023-07-18T04:09:48.729Z,0
2023-07-18T04:10:48.905Z,0
2023-07-18T04:11:49.069Z,0
2023-07-18T04:12:49.260Z,0
2023-07-18T04:13:49.434Z,0
2023-07-18T04:14:49.672Z,0
2023-07-18T04:15:50.164Z,0
2023-07-18T04:16:50.382Z,0
2023-07-18T04:17:50.722Z,0
2023-07-18T04:18:50.926Z,0
2023-07-18T04:19:51.096Z,0
2023-07-18T04:20:51.345Z,0
2023-07-18T04:21:51.522Z,0
2023-07-18T04:22:51.804Z,0
2023-07-18T04:23:51.994Z,0
2023-07-18T04:24:52.195Z,0
2023-07-18T04:25:52.356Z,0
2023-07-18T04:26:52.532Z,0
2023-07-18T04:27:52.711Z,0
2023-07-18T04:28:52.924Z,0
2023-07-18T04:29:53.080Z,0
2023-07-18T04:30:53.265Z,0
2023-07-18T04:31:53.588Z,0
2023-07-18T04:32:53.934Z,0
2023-07-18T04:33:54.099Z,0
2023-07-18T04:34:54.263Z,0
2023-07-18T04:35:54.452Z,0
2023-07-18T04:36:54.654Z,0
2023-07-18T04:37:54.811Z,0
2023-07-18T04:38:54.972Z,0
2023-07-18T04:39:55.153Z,0
2023-07-18T04:40:55.336Z,0
2023-07-18T04:41:56.374Z,0
2023-07-18T04:42:56.565Z,0
2023-07-18T04:43:56.736Z,0
2023-07-18T04:44:56.911Z,0
2023-07-18T04:45:57.180Z,0
2023-07-18T04:46:57.621Z,0
2023-07-18T04:47:58.000Z,0
2023-07-18T04:48:58.189Z,0
2023-07-18T04:49:58.360Z,0
2023-07-18T04:50:58.548Z,0.16
2023-07-18T04:51:58.713Z,0
2023-07-18T04:52:58.884Z,0
2023-07-18T04:53:59.118Z,0
2023-07-18T04:54:59.299Z,0
2023-07-18T04:55:59.467Z,0
2023-07-18T04:56:59.633Z,0
2023-07-18T04:57:59.796Z,0
2023-07-18T04:58:59.971Z,0
2023-07-18T05:00:00.192Z,0
2023-07-18T05:01:00.529Z,0
2023-07-18T05:02:01.070Z,0
2023-07-18T05:03:01.441Z,0
2023-07-18T05:04:01.886Z,0
2023-07-18T05:05:02.132Z,0
2023-07-18T05:06:02.326Z,0
2023-07-18T05:07:02.513Z,0
2023-07-18T05:08:02.735Z,0
2023-07-18T05:09:02.937Z,0
2023-07-18T05:10:03.133Z,0
2023-07-18T05:11:03.311Z,0
2023-07-18T05:12:05.029Z,0.7
2023-07-18T05:13:05.621Z,0
2023-07-18T05:14:05.854Z,0
2023-07-18T05:15:06.056Z,0
2023-07-18T05:16:06.373Z,0
2023-07-18T05:17:06.608Z,0
2023-07-18T05:18:06.914Z,0
2023-07-18T05:19:07.125Z,0
2023-07-18T05:20:07.283Z,0
2023-07-18T05:21:07.465Z,0
2023-07-18T05:22:07.622Z,0
2023-07-18T05:23:08.010Z,0
2023-07-18T05:24:08.325Z,0
2023-07-18T05:25:08.586Z,0
2023-07-18T05:26:08.799Z,0
2023-07-18T05:27:08.967Z,0
2023-07-18T05:28:09.151Z,0.19
2023-07-18T05:29:09.340Z,0
2023-07-18T05:30:09.521Z,0.19
2023-07-18T05:31:09.891Z,0
2023-07-18T05:32:10.106Z,0.87
2023-07-18T05:33:10.385Z,0
2023-07-18T05:34:10.587Z,0
2023-07-18T05:35:10.783Z,0
2023-07-18T05:36:10.972Z,0.34
2023-07-18T05:37:11.169Z,0
2023-07-18T05:38:11.354Z,0
2023-07-18T05:39:11.520Z,0.1
2023-07-18T05:40:11.698Z,0.1
2023-07-18T05:41:11.877Z,0
2023-07-18T05:42:12.046Z,0.29
2023-07-18T05:43:12.260Z,0
2023-07-18T05:44:12.492Z,0.75
2023-07-18T05:45:12.674Z,0
2023-07-18T05:46:12.992Z,0.29
2023-07-18T05:47:13.223Z,0.45
2023-07-18T05:48:13.458Z,0.33
2023-07-18T05:49:13.660Z,0.25
2023-07-18T05:50:13.833Z,0
2023-07-18T05:51:13.999Z,0
2023-07-18T05:52:14.173Z,0
2023-07-18T05:53:14.336Z,0
2023-07-18T05:54:14.495Z,0
2023-07-18T05:55:14.783Z,0
2023-07-18T05:56:14.981Z,0
2023-07-18T05:57:15.188Z,0
2023-07-18T05:58:15.368Z,0
2023-07-18T05:59:15.535Z,0.5
2023-07-18T06:00:15.714Z,0.45
2023-07-18T06:01:16.321Z,0
2023-07-18T06:02:16.557Z,0
2023-07-18T06:03:17.168Z,0
2023-07-18T06:04:17.838Z,0
2023-07-18T06:05:18.025Z,0.12
2023-07-18T06:06:18.220Z,0.2
2023-07-18T06:07:18.410Z,0
2023-07-18T06:08:18.610Z,0
2023-07-18T06:09:18.802Z,0
2023-07-18T06:10:19.025Z,0
2023-07-18T06:11:20.046Z,0
2023-07-18T06:12:20.410Z,0.79
2023-07-18T06:13:20.591Z,0
2023-07-18T06:14:20.813Z,0.91
2023-07-18T06:15:21.030Z,0.58
2023-07-18T06:16:21.365Z,0
2023-07-18T06:17:21.675Z,0.37
2023-07-18T06:18:22.235Z,0.21
2023-07-18T06:19:22.438Z,0
2023-07-18T06:20:22.605Z,0
2023-07-18T06:21:23.076Z,0.16
2023-07-18T06:22:23.248Z,0
2023-07-18T06:23:23.550Z,0
2023-07-18T06:24:23.735Z,0
2023-07-18T06:25:24.166Z,0.12
2023-07-18T06:26:24.474Z,0.2
2023-07-18T06:27:24.715Z,0.16
2023-07-18T06:28:24.892Z,0
2023-07-18T06:29:25.065Z,0
2023-07-18T06:30:25.220Z,0
2023-07-18T06:31:25.561Z,0
2023-07-18T06:32:25.839Z,0
2023-07-18T06:33:26.024Z,0
2023-07-18T06:34:26.215Z,0.43
2023-07-18T06:35:26.388Z,0.22
2023-07-18T06:36:26.720Z,0.33
2023-07-18T06:37:26.912Z,0
2023-07-18T06:38:27.143Z,0.12
2023-07-18T06:39:27.351Z,0
2023-07-18T06:40:27.757Z,0.18
2023-07-18T06:41:27.980Z,0
2023-07-18T06:42:28.166Z,0.54
2023-07-18T06:43:28.310Z,0.33
2023-07-18T06:44:28.511Z,0
2023-07-18T06:45:28.746Z,0
2023-07-18T06:46:29.075Z,0
2023-07-18T06:47:29.370Z,0
2023-07-18T06:48:29.602Z,0
2023-07-18T06:49:29.792Z,0
2023-07-18T06:50:29.964Z,0
2023-07-18T06:51:30.159Z,0
2023-07-18T06:52:36.601Z,0
2023-07-18T06:53:37.187Z,0
2023-07-18T06:54:37.400Z,0
2023-07-18T06:55:37.585Z,0
2023-07-18T06:56:37.769Z,0
2023-07-18T06:57:37.950Z,0
2023-07-18T06:58:38.113Z,0.5
2023-07-18T06:59:38.292Z,0
2023-07-18T07:00:38.564Z,0.2
2023-07-18T07:01:38.936Z,0
2023-07-18T07:02:39.385Z,0
2023-07-18T07:03:39.943Z,0.62
2023-07-18T07:04:40.159Z,0
2023-07-18T07:05:40.327Z,0
2023-07-18T07:06:40.502Z,0.37
2023-07-18T07:07:40.684Z,0.27
2023-07-18T07:08:40.945Z,0
2023-07-18T07:09:41.137Z,0.33
2023-07-18T07:10:41.305Z,0
2023-07-18T07:11:41.466Z,0
2023-07-18T07:12:41.663Z,0
2023-07-18T07:13:42.100Z,0
2023-07-18T07:14:42.389Z,0
2023-07-18T07:15:42.560Z,0
2023-07-18T07:16:43.031Z,0
2023-07-18T07:17:43.389Z,0
2023-07-18T07:18:43.608Z,0
2023-07-18T07:19:43.774Z,0
2023-07-18T07:20:43.933Z,0
2023-07-18T07:21:44.092Z,0.16
2023-07-18T07:22:44.367Z,0
2023-07-18T07:23:44.577Z,0
2023-07-18T07:24:44.756Z,0.58
2023-07-18T07:25:44.950Z,0
2023-07-18T07:26:45.196Z,0
2023-07-18T07:27:45.660Z,0
2023-07-18T07:28:45.906Z,0
2023-07-18T07:29:46.075Z,0
2023-07-18T07:30:46.358Z,0
2023-07-18T07:31:46.556Z,0
2023-07-18T07:32:46.888Z,0.25
2023-07-18T07:33:47.328Z,0.54
2023-07-18T07:34:47.537Z,0
2023-07-18T07:35:48.079Z,0
2023-07-18T07:36:48.297Z,0
2023-07-18T07:37:48.532Z,0
2023-07-18T07:38:48.753Z,0
2023-07-18T07:39:48.924Z,0
2023-07-18T07:40:49.090Z,0
2023-07-18T07:41:49.244Z,0.12
2023-07-18T07:42:49.427Z,0
2023-07-18T07:43:49.714Z,0
2023-07-18T07:44:49.989Z,0
2023-07-18T07:45:50.197Z,0
2023-07-18T07:46:50.628Z,0
2023-07-18T07:47:51.110Z,0
2023-07-18T07:48:51.341Z,0
2023-07-18T07:49:51.586Z,0
2023-07-18T07:50:51.878Z,0
2023-07-18T07:51:52.051Z,0
2023-07-18T07:52:52.221Z,0
2023-07-18T07:53:52.461Z,0
2023-07-18T07:54:52.654Z,0
2023-07-18T07:55:52.811Z,0
2023-07-18T07:56:52.981Z,0
2023-07-18T07:57:53.142Z,0
2023-07-18T07:59:12.449Z,0
2023-07-18T08:00:12.666Z,0.16
2023-07-18T08:01:12.903Z,0
2023-07-18T08:02:13.279Z,0
2023-07-18T08:03:13.729Z,0
2023-07-18T08:04:14.117Z,0
2023-07-18T08:05:14.443Z,0
2023-07-18T08:06:14.646Z,0
2023-07-18T08:07:14.829Z,0
2023-07-18T08:08:15.001Z,0
2023-07-18T08:09:15.164Z,0
2023-07-18T08:10:15.359Z,0
2023-07-18T08:11:15.520Z,0
2023-07-18T08:12:15.688Z,0.3
2023-07-18T08:13:15.868Z,1.12
2023-07-18T08:14:16.035Z,0
2023-07-18T08:15:16.225Z,0
2023-07-18T08:16:16.556Z,0.7
2023-07-18T08:17:16.840Z,0
2023-07-18T08:18:17.024Z,0
2023-07-18T08:19:17.217Z,0
2023-07-18T08:20:17.375Z,0
2023-07-18T08:21:18.267Z,0
2023-07-18T08:22:18.615Z,0
2023-07-18T08:23:19.044Z,0.54
2023-07-18T08:24:19.237Z,0
2023-07-18T08:25:19.422Z,0
2023-07-18T08:26:19.652Z,0
2023-07-18T08:27:19.845Z,0
2023-07-18T08:28:20.042Z,0.54
2023-07-18T08:29:20.439Z,0
2023-07-18T08:30:20.686Z,0
2023-07-18T08:31:22.239Z,0
2023-07-18T08:32:22.865Z,0
2023-07-18T08:33:23.108Z,0
2023-07-18T08:34:23.308Z,0.12
2023-07-18T08:35:23.545Z,0
2023-07-18T08:36:23.733Z,0.37
2023-07-18T08:37:23.891Z,0.83
2023-07-18T08:38:24.091Z,0
2023-07-18T08:39:24.296Z,0
2023-07-18T08:40:24.493Z,0
2023-07-18T08:41:24.681Z,0
2023-07-18T08:42:24.877Z,0.16
2023-07-18T08:43:25.076Z,0.42
2023-07-18T08:44:25.241Z,0
2023-07-18T08:45:25.439Z,0.18
2023-07-18T08:46:25.768Z,1.37
2023-07-18T08:47:25.968Z,0.57
2023-07-18T08:48:26.360Z,0
2023-07-18T08:49:26.588Z,0.2
2023-07-18T08:50:26.796Z,0.54
2023-07-18T08:51:26.952Z,0
2023-07-18T08:52:27.235Z,0
2023-07-18T08:53:27.462Z,0
2023-07-18T08:54:27.723Z,0
2023-07-18T08:55:28.092Z,0
2023-07-18T08:56:28.298Z,0
2023-07-18T08:57:28.472Z,0
2023-07-18T08:58:28.672Z,0
2023-07-18T08:59:28.847Z,0.79
2023-07-18T09:00:29.024Z,0.14
2023-07-18T09:01:29.292Z,0
2023-07-18T09:02:29.564Z,0
2023-07-18T09:03:29.991Z,0
2023-07-18T09:04:30.241Z,0
2023-07-18T09:05:30.393Z,0
2023-07-18T09:06:30.581Z,0.12
2023-07-18T09:07:30.758Z,0
2023-07-18T09:08:30.922Z,0
2023-07-18T09:09:31.076Z,0.29
2023-07-18T09:10:31.236Z,0.37
2023-07-18T09:11:31.425Z,0
2023-07-18T09:12:31.605Z,0
2023-07-18T09:13:31.765Z,0
2023-07-18T09:14:31.991Z,0
2023-07-18T09:15:32.160Z,0
2023-07-18T09:16:32.471Z,0
2023-07-18T09:17:32.791Z,0.19
2023-07-18T09:18:32.967Z,0
2023-07-18T09:19:33.145Z,0
2023-07-18T09:20:33.349Z,0
2023-07-18T09:21:33.539Z,0
2023-07-18T09:22:33.880Z,0
2023-07-18T09:23:34.076Z,0
2023-07-18T09:24:34.252Z,0
2023-07-18T09:25:34.414Z,0.37
2023-07-18T09:26:34.587Z,0
2023-07-18T09:27:34.768Z,0.54
2023-07-18T09:28:34.940Z,0.32
2023-07-18T09:29:35.152Z,0.12
2023-07-18T09:30:35.330Z,0
2023-07-18T09:31:35.661Z,0
2023-07-18T09:32:35.994Z,0
2023-07-18T09:33:36.185Z,0
2023-07-18T09:34:36.364Z,0
2023-07-18T09:35:36.545Z,0
2023-07-18T09:36:37.277Z,0
2023-07-18T09:37:37.821Z,0
2023-07-18T09:38:38.013Z,0.1
2023-07-18T09:39:38.236Z,0.41
2023-07-18T09:40:40.042Z,0
2023-07-18T09:41:40.240Z,1.16
2023-07-18T09:42:47.954Z,0
2023-07-18T09:43:49.296Z,0.7
2023-07-18T09:44:54.145Z,0.29
2023-07-18T09:45:54.846Z,0
2023-07-18T09:46:55.036Z,0
2023-07-18T09:47:55.329Z,0
2023-07-18T09:48:55.502Z,0
2023-07-18T09:49:55.652Z,0.37
2023-07-18T09:50:55.811Z,0
2023-07-18T09:51:55.991Z,0.25
2023-07-18T09:52:56.150Z,0.29
2023-07-18T09:53:56.301Z,0
2023-07-18T09:54:56.461Z,0
2023-07-18T09:55:56.626Z,1.66
2023-07-18T09:56:56.792Z,0.53
2023-07-18T09:57:56.985Z,0
2023-07-18T09:58:57.175Z,1.25
2023-07-18T09:59:57.344Z,0.55
2023-07-18T10:00:57.644Z,0
2023-07-18T10:01:57.895Z,0.25
2023-07-18T10:02:58.701Z,0.2
2023-07-18T10:03:59.141Z,0.66
2023-07-18T10:04:59.332Z,0
2023-07-18T10:05:59.486Z,1.79
2023-07-18T10:06:59.662Z,0.11
2023-07-18T10:07:59.824Z,0.33
2023-07-18T10:08:59.989Z,0
2023-07-18T10:10:00.243Z,0
2023-07-18T10:11:00.430Z,0
2023-07-18T10:12:00.724Z,0
2023-07-18T10:13:01.069Z,0
2023-07-18T10:14:01.364Z,0
2023-07-18T10:15:01.703Z,0.83
2023-07-18T10:16:02.025Z,0.14
2023-07-18T10:17:02.537Z,0.17
2023-07-18T10:18:02.839Z,0.16
2023-07-18T10:19:03.005Z,0.29
2023-07-18T10:20:03.205Z,0.58
2023-07-18T10:21:03.375Z,0
2023-07-18T10:22:03.562Z,1
2023-07-18T10:23:03.816Z,0.45
2023-07-18T10:24:04.008Z,0.62
2023-07-18T10:25:04.188Z,0.73
2023-07-18T10:26:04.366Z,0.22
2023-07-18T10:27:04.544Z,0.58
2023-07-18T10:28:04.712Z,0.95
2023-07-18T10:29:04.886Z,0.66
2023-07-18T10:30:05.278Z,1.62
2023-07-18T10:31:05.841Z,0.67
2023-07-18T10:32:06.092Z,0.16
2023-07-18T10:33:06.536Z,0
2023-07-18T10:34:06.740Z,0
2023-07-18T10:35:06.911Z,0
2023-07-18T10:36:07.079Z,0.21
2023-07-18T10:37:07.540Z,0.33
2023-07-18T10:38:07.923Z,0
2023-07-18T10:39:08.132Z,0
2023-07-18T10:40:08.378Z,0.1
2023-07-18T10:41:08.546Z,0.16
2023-07-18T10:42:08.712Z,0.34
2023-07-18T10:43:08.950Z,0.38
2023-07-18T10:44:09.134Z,0
2023-07-18T10:45:09.399Z,0
2023-07-18T10:46:09.707Z,0.41
2023-07-18T10:47:09.973Z,0.26
2023-07-18T10:48:10.256Z,0
2023-07-18T10:49:10.440Z,0.5
2023-07-18T10:50:10.688Z,0.56
2023-07-18T10:51:10.881Z,0.44
2023-07-18T10:52:11.056Z,0
2023-07-18T10:53:11.427Z,0
2023-07-18T10:54:11.754Z,0.16
2023-07-18T10:55:11.921Z,0
2023-07-18T10:56:12.085Z,0
2023-07-18T10:57:12.432Z,0
2023-07-18T10:58:12.669Z,0.2
2023-07-18T10:59:12.846Z,0.29
2023-07-18T11:00:13.015Z,0.7
2023-07-18T11:01:13.277Z,2
2023-07-18T11:02:13.623Z,1.37
2023-07-18T11:03:13.849Z,2.58
2023-07-18T11:04:14.347Z,2.58
2023-07-18T11:05:14.618Z,2.58
2023-07-18T11:06:14.787Z,1.55
2023-07-18T11:07:14.939Z,3.25
2023-07-18T11:08:15.103Z,1.41
2023-07-18T11:09:15.374Z,3.2
2023-07-18T11:10:15.858Z,2.71
2023-07-18T11:11:16.055Z,0.84
2023-07-18T11:12:16.225Z,1.39
2023-07-18T11:13:16.421Z,0.97
2023-07-18T11:14:16.579Z,1.08
2023-07-18T11:15:16.805Z,0.8
2023-07-18T11:16:17.377Z,1.75
2023-07-18T11:17:17.623Z,0.63
2023-07-18T11:18:17.803Z,0.51
2023-07-18T11:19:17.973Z,0
2023-07-18T11:20:18.169Z,0.62
2023-07-18T11:21:18.415Z,0.29
2023-07-18T11:22:18.611Z,1.36
2023-07-18T11:23:18.770Z,0
2023-07-18T11:24:18.948Z,0
2023-07-18T11:25:19.139Z,0
2023-07-18T11:26:19.777Z,0
2023-07-18T11:27:20.002Z,0.12
2023-07-18T11:28:20.172Z,0.37
2023-07-18T11:29:20.360Z,1.66
2023-07-18T11:30:20.527Z,1.66
2023-07-18T11:31:42.717Z,1.66
2023-07-18T11:32:43.410Z,0
2023-07-18T11:33:43.591Z,0.29
2023-07-18T11:34:43.754Z,0.54
2023-07-18T11:35:43.928Z,1
2023-07-18T11:36:44.098Z,0.86
2023-07-18T11:37:44.427Z,0
2023-07-18T11:38:44.638Z,0.18
2023-07-18T11:39:44.830Z,0.75
2023-07-18T11:40:45.004Z,1.62
2023-07-18T11:41:45.196Z,1.62
2023-07-18T11:42:45.488Z,0.65
2023-07-18T11:43:45.666Z,0
2023-07-18T11:44:45.841Z,0
2023-07-18T11:45:46.027Z,0
2023-07-18T11:46:46.261Z,0.12
2023-07-18T11:47:46.803Z,0.87
2023-07-18T11:48:47.280Z,0.54
2023-07-18T11:49:47.511Z,0.18
2023-07-18T11:50:47.669Z,0
2023-07-18T11:51:47.847Z,0.6
2023-07-18T11:52:48.121Z,0.45
2023-07-18T11:53:48.312Z,1.75
2023-07-18T11:54:48.508Z,1.17
2023-07-18T11:55:48.691Z,1.54
2023-07-18T11:56:48.869Z,1.05
2023-07-18T11:57:49.029Z,0.68
2023-07-18T11:58:49.199Z,0.91
2023-07-18T11:59:49.374Z,0.54
2023-07-18T12:00:49.540Z,0.83
2023-07-18T12:01:49.993Z,0.58
2023-07-18T12:02:50.990Z,0.7
2023-07-18T12:03:51.573Z,0.41
2023-07-18T12:04:51.827Z,0.36
2023-07-18T12:05:51.998Z,0.7
2023-07-18T12:06:52.188Z,1.04
2023-07-18T12:07:52.348Z,0.13
2023-07-18T12:08:52.560Z,0
2023-07-18T12:09:52.797Z,0
2023-07-18T12:11:10.041Z,0.28
2023-07-18T12:12:10.225Z,0.87
2023-07-18T12:13:10.406Z,0.87
2023-07-18T12:14:10.583Z,1.29
2023-07-18T12:15:10.780Z,0.1
2023-07-18T12:16:11.039Z,0
2023-07-18T12:17:11.461Z,2.04
2023-07-18T12:18:11.645Z,1.4
2023-07-18T12:19:11.813Z,1.4
2023-07-18T12:20:12.291Z,1.4
2023-07-18T12:21:16.136Z,0.87
2023-07-18T12:22:16.315Z,1.54
2023-07-18T12:23:16.583Z,1.54
2023-07-18T12:24:16.778Z,1.54
2023-07-18T12:25:16.986Z,1.54
2023-07-18T12:26:17.149Z,2.33
2023-07-18T12:27:17.319Z,2.08
2023-07-18T12:28:17.490Z,2.08
2023-07-18T12:29:17.677Z,2.08
2023-07-18T12:30:17.853Z,2.08
2023-07-18T12:31:19.184Z,0.79
2023-07-18T12:32:27.482Z,1.61
2023-07-18T12:33:29.337Z,0.79
2023-07-18T12:34:29.712Z,0
2023-07-18T12:35:29.910Z,0
2023-07-18T12:36:30.085Z,0
2023-07-18T12:37:30.262Z,0.54
2023-07-18T12:38:30.511Z,1.45
2023-07-18T12:39:30.693Z,1.87
2023-07-18T12:40:31.024Z,1.19
2023-07-18T12:41:31.244Z,2.91
2023-07-18T12:42:31.411Z,2.91
2023-07-18T12:43:31.595Z,2.54
2023-07-18T12:44:32.252Z,2.41
2023-07-18T12:45:32.432Z,0.58
2023-07-18T12:46:32.730Z,0
2023-07-18T12:47:32.992Z,0.39
2023-07-18T12:48:33.189Z,1.91
2023-07-18T12:50:51.509Z,2.12
2023-07-18T12:51:51.669Z,0.97
2023-07-18T12:52:51.864Z,1.58
2023-07-18T12:53:52.032Z,1.62
2023-07-18T12:54:52.219Z,2.04
2023-07-18T12:55:52.410Z,2.04
2023-07-18T12:56:52.592Z,2.04
2023-07-18T12:57:52.784Z,1.45
2023-07-18T12:58:52.993Z,2.91
2023-07-18T12:59:53.185Z,1.9
2023-07-18T13:00:53.374Z,1.47
2023-07-18T13:01:53.680Z,1.4
2023-07-18T13:02:54.094Z,1.4
2023-07-18T13:03:54.774Z,0.85
2023-07-18T13:04:55.020Z,1.04
2023-07-18T13:05:55.196Z,0.58
2023-07-18T13:06:55.377Z,0.13
2023-07-18T13:07:55.580Z,0.66
2023-07-18T13:08:55.829Z,1.29
2023-07-18T13:09:55.992Z,1.29
2023-07-18T13:10:56.195Z,1.29
2023-07-18T13:11:56.452Z,2.54
2023-07-18T13:12:56.609Z,2.54
2023-07-18T13:13:56.782Z,2.41
2023-07-18T13:14:56.957Z,1.5
2023-07-18T13:15:57.175Z,2.41
2023-07-18T13:16:57.907Z,2.41
2023-07-18T13:17:58.382Z,0.97
2023-07-18T13:18:58.642Z,1.68
2023-07-18T13:19:58.807Z,1.33
2023-07-18T13:20:58.973Z,0.1
2023-07-18T13:21:59.134Z,0
2023-07-18T13:22:59.409Z,1.2
2023-07-18T13:23:59.610Z,1.2
2023-07-18T13:24:59.768Z,1.2
2023-07-18T13:25:59.920Z,2.62
2023-07-18T13:27:00.151Z,1.49
2023-07-18T13:28:00.326Z,1.37
2023-07-18T13:29:00.499Z,1.83
2023-07-18T13:30:00.676Z,1.83
2023-07-18T13:31:00.846Z,1.58
2023-07-18T13:32:01.404Z,1.03
2023-07-18T13:33:01.807Z,1.4
2023-07-18T13:34:01.998Z,1.41
2023-07-18T13:35:02.186Z,0.29
2023-07-18T13:36:02.365Z,0.23
2023-07-18T13:37:02.535Z,0.11
2023-07-18T13:38:02.723Z,1.41
2023-07-18T13:39:02.924Z,0.32
2023-07-18T13:40:03.126Z,0
2023-07-18T13:41:03.310Z,0
2023-07-18T13:42:03.486Z,1.12
2023-07-18T13:43:03.668Z,1.7
2023-07-18T13:44:05.001Z,1.01
2023-07-18T13:45:05.209Z,1.5
2023-07-18T13:46:05.502Z,1.12
2023-07-18T13:47:05.837Z,0.78
2023-07-18T13:48:06.139Z,0.78
2023-07-18T13:49:06.352Z,0.5
2023-07-18T13:50:31.825Z,1.16
2023-07-18T13:51:32.157Z,1.16
2023-07-18T13:52:32.333Z,0.8
2023-07-18T13:53:32.491Z,1.16
2023-07-18T13:54:32.673Z,0
2023-07-18T13:55:32.828Z,0
2023-07-18T13:56:33.011Z,0
2023-07-18T13:57:33.272Z,0.95
2023-07-18T13:58:33.450Z,0.14
2023-07-18T13:59:33.742Z,0.25
2023-07-18T14:00:34.023Z,0
2023-07-18T14:01:34.345Z,0
2023-07-18T14:02:34.737Z,0
2023-07-18T14:03:37.545Z,0.29
2023-07-18T14:04:37.786Z,0
2023-07-18T14:05:37.956Z,0
2023-07-18T14:06:38.119Z,0
2023-07-18T14:07:38.286Z,0
2023-07-18T14:08:38.458Z,0
2023-07-18T14:09:38.645Z,0.12
2023-07-18T14:10:38.844Z,1.12
2023-07-18T14:11:39.046Z,0
2023-07-18T14:12:39.266Z,0
2023-07-18T14:13:39.452Z,0
2023-07-18T14:14:39.643Z,0
2023-07-18T14:15:39.847Z,0.29
2023-07-18T14:16:40.291Z,0.54
2023-07-18T14:17:40.621Z,0.49
2023-07-18T14:18:40.824Z,0
2023-07-18T14:19:40.996Z,0.7
2023-07-18T14:20:41.184Z,0
2023-07-18T14:21:41.341Z,0
2023-07-18T14:22:47.291Z,0.5
2023-07-18T14:23:48.449Z,0